1FD7 weather

Pga National Heliport
Palm Beach Gardens, Florida, United States

Public forecast

Using degrees Fahrenheit for public forecast. Weather courtesy of forecast.io.

Closest aviation weather report (METAR) to Pga National Heliport

Closest report is Palm Beach International Airport, 9.3 nm (17.3 km) SSE. Retrieved 2019/10/17 21:53 UTC (45 minutes ago):

KPBI 172153Z 13008KT 10SM SCT044 BKN055 BKN080 28/23 A2989 RMK AO2 LTG DSNT SE SLP120 CB DSNT SE-S W T02830233

Closest aviation forecast (TAF) to Pga National Heliport

Closest forecast is Palm Beach International Airport, 9.3 nm (17.3 km) SSE. Retrieved 2019/10/17 18:31 UTC (4 hours ago):

TAF KPBI 171722Z 1718/1818 27006KT P6SM VCSH SCT025 BKN040 FM172000 06007KT P6SM VCTS SCT025CB BKN100 FM180000 VRB04KT P6SM VCSH FEW025 SCT050 SCT150 FM181500 11008KT P6SM SCT035 BKN050